Time;durP1;ratioP1;P1;durP2;ratioP2;P2;SDS_P1;SDS_P2;PMS_P1;PMS_P2;Temp;Humidity;BMP_temperature;BMP_pressure;BME280_temperature;BME280_humidity;BME280_pressure;Samples;Min_cycle;Max_cycle;Signal;HPM_P1;HPM_P2
2021/10/19 00:01:23;;;;;;;16.50;9.73;;;;;;;5.17;76.49;100176.09;1702201;82;21511;-56
2021/10/19 00:03:49;;;;;;;13.83;9.75;;;;;;;5.12;76.73;100176.58;1711313;82;21465;-55
2021/10/19 00:06:16;;;;;;;15.53;8.75;;;;;;;5.08;76.75;100184.88;1700542;82;21665;-55
2021/10/19 00:08:42;;;;;;;12.50;9.30;;;;;;;5.08;76.55;100186.17;1697261;82;21617;-55
2021/10/19 00:11:09;;;;;;;14.50;9.27;;;;;;;5.09;77.70;100187.06;1710624;82;20967;-55
2021/10/19 00:13:36;;;;;;;14.25;9.35;;;;;;;5.10;77.08;100191.38;1706911;82;21546;-55
2021/10/19 00:16:05;;;;;;;13.80;9.53;;;;;;;5.02;77.85;100191.47;1713116;82;21617;-58
2021/10/19 00:18:32;;;;;;;15.30;9.48;;;;;;;4.97;77.27;100190.23;1697241;82;21440;-59
2021/10/19 00:20:58;;;;;;;13.75;9.00;;;;;;;4.91;77.28;100200.70;1709160;82;21563;-57
2021/10/19 00:23:25;;;;;;;10.40;8.03;;;;;;;4.87;77.62;100205.52;1718931;82;21554;-57
2021/10/19 00:25:53;;;;;;;15.60;9.78;;;;;;;4.95;77.52;100196.31;1713870;82;21007;-56
2021/10/19 00:28:20;;;;;;;15.55;9.85;;;;;;;4.94;78.79;100199.38;1712354;81;20990;-56
2021/10/19 00:30:47;;;;;;;15.03;9.93;;;;;;;4.90;78.47;100203.31;1715831;82;21594;-57
2021/10/19 00:36:13;;;;;;;12.37;9.40;;;;;;;4.94;78.58;100198.52;1766351;79;23353;-56
2021/10/19 00:38:40;;;;;;;17.77;10.50;;;;;;;4.96;78.90;100207.18;1727958;81;21569;-57
2021/10/19 00:41:07;;;;;;;13.75;9.90;;;;;;;5.09;78.48;100201.39;1733242;81;22153;-57
2021/10/19 00:43:34;;;;;;;15.85;10.68;;;;;;;5.12;78.48;100201.34;1728609;80;21483;-57
2021/10/19 00:46:01;;;;;;;14.45;10.05;;;;;;;5.05;78.83;100202.72;1730418;81;21533;-57
2021/10/19 00:48:31;;;;;;;16.87;9.88;;;;;;;5.01;78.54;100203.64;1739441;81;21424;-57
2021/10/19 00:50:56;;;;;;;12.35;9.13;;;;;;;4.98;78.58;100202.36;1742265;80;21475;-56
2021/10/19 00:53:23;;;;;;;12.43;8.73;;;;;;;5.05;78.58;100204.02;1732784;81;21518;-56
2021/10/19 00:55:51;;;;;;;14.80;10.68;;;;;;;5.03;78.58;100205.79;1738155;81;21502;-56
2021/10/19 00:58:18;;;;;;;15.15;9.45;;;;;;;4.95;78.79;100206.74;1741519;81;21447;-58
2021/10/19 01:00:44;;;;;;;11.10;9.68;;;;;;;4.84;79.16;100212.05;1738086;80;21507;-56
2021/10/19 01:03:11;;;;;;;13.65;8.90;;;;;;;4.80;79.17;100212.97;1738391;80;21577;-57
2021/10/19 01:05:38;;;;;;;9.85;8.35;;;;;;;4.85;78.96;100213.34;1731867;80;21855;-57
2021/10/19 01:08:05;;;;;;;11.55;8.18;;;;;;;4.88;78.61;100210.72;1732157;80;21650;-60
2021/10/19 01:10:32;;;;;;;12.03;8.73;;;;;;;4.79;78.49;100219.94;1735433;80;21494;-57
2021/10/19 01:12:59;;;;;;;11.90;8.30;;;;;;;4.70;78.84;100217.86;1740212;80;21570;-57
2021/10/19 01:15:26;;;;;;;10.20;7.25;;;;;;;4.62;78.92;100217.48;1736319;80;21451;-57
2021/10/19 01:18:15;;;;;;;10.53;7.78;;;;;;;4.60;78.82;100219.70;1692292;81;22147;-55
2021/10/19 01:20:42;;;;;;;9.58;7.30;;;;;;;4.66;78.57;100220.48;1678389;83;21507;-57
2021/10/19 01:23:10;;;;;;;;;;;;;;;4.60;78.34;100219.70;1702145;83;21625;-57
2021/10/19 01:25:38;;;;;;;9.43;7.40;;;;;;;4.48;79.15;100223.25;1698846;82;20578;-55
2021/10/19 01:28:08;;;;;;;16.87;8.80;;;;;;;4.39;78.75;100227.23;1668300;84;21049;-56
2021/10/19 01:30:42;;;;;;;13.85;7.55;;;;;;;4.31;79.34;100221.23;1645243;85;21767;-56
2021/10/19 01:33:10;;;;;;;10.55;7.67;;;;;;;4.29;79.78;100226.44;1691728;83;21537;-57
2021/10/19 01:35:38;;;;;;;;;;;;;;;4.32;79.39;100221.23;1708941;82;21487;-56
2021/10/19 01:38:07;;;;;;;9.68;7.03;;;;;;;4.25;79.24;100224.75;1673636;85;20302;-62
2021/10/19 01:40:34;;;;;;;10.00;8.30;;;;;;;4.17;79.30;100229.16;1667190;84;21573;-56
2021/10/19 01:43:00;;;;;;;10.03;8.20;;;;;;;4.12;79.41;100224.41;1665760;84;22103;-56
2021/10/19 01:45:27;;;;;;;11.38;7.83;;;;;;;4.05;79.41;100233.58;1663977;85;21164;-56
2021/10/19 01:47:54;;;;;;;8.43;7.60;;;;;;;4.08;79.23;100227.03;1675672;83;21566;-57
2021/10/19 01:50:20;;;;;;;9.10;7.83;;;;;;;4.17;79.27;100235.22;1700569;83;20954;-56
2021/10/19 01:52:47;;;;;;;12.30;9.05;;;;;;;4.15;79.15;100239.58;1663414;85;21515;-56
2021/10/19 01:55:14;;;;;;;11.97;8.38;;;;;;;4.08;78.98;100241.79;1661558;84;21787;-56
2021/10/19 01:57:41;;;;;;;12.00;8.45;;;;;;;4.00;78.96;100234.48;1640888;86;21650;-55
2021/10/19 02:00:10;;;;;;;12.85;8.20;;;;;;;3.96;79.06;100241.44;1662844;85;21502;-57
2021/10/19 02:02:40;;;;;;;11.75;8.55;;;;;;;3.97;79.43;100240.99;1660825;84;21596;-58
2021/10/19 02:05:10;;;;;;;11.15;8.40;;;;;;;4.03;79.09;100246.15;1662615;85;21558;-56
2021/10/19 02:07:40;;;;;;;13.75;8.80;;;;;;;3.97;78.82;100244.89;1649320;85;21835;-56
2021/10/19 02:10:08;;;;;;;10.55;8.73;;;;;;;3.85;79.00;100244.09;1665531;84;21498;-56
2021/10/19 02:12:35;;;;;;;13.13;9.15;;;;;;;3.79;78.75;100245.88;1650520;85;21602;-57
2021/10/19 02:15:03;;;;;;;11.68;8.53;;;;;;;3.73;78.78;100250.68;1633817;86;21608;-56
2021/10/19 02:17:30;;;;;;;15.18;9.28;;;;;;;3.78;78.72;100254.09;1684232;83;21574;-57
2021/10/19 02:20:00;;;;;;;11.73;9.15;;;;;;;3.76;78.62;100254.55;1702604;83;22101;-56
2021/10/19 02:22:25;;;;;;;12.25;9.00;;;;;;;3.69;78.82;100257.63;1700597;82;21562;-57
2021/10/19 02:24:52;;;;;;;12.25;8.65;;;;;;;3.62;79.20;100264.17;1701948;83;21680;-58
2021/10/19 02:27:18;;;;;;;10.70;7.30;;;;;;;3.56;79.61;100264.17;1698969;83;21435;-57
2021/10/19 02:29:45;;;;;;;10.30;7.97;;;;;;;3.59;79.26;100276.73;1668735;84;21539;-56
2021/10/19 02:32:11;;;;;;;14.20;8.58;;;;;;;3.64;79.24;100279.33;1691096;83;22150;-56
2021/10/19 02:34:38;;;;;;;11.15;8.20;;;;;;;3.55;79.58;100279.37;1700701;83;21060;-56
2021/10/19 02:37:05;;;;;;;10.82;7.95;;;;;;;3.46;79.33;100275.91;1699993;83;21514;-56
2021/10/19 02:39:31;;;;;;;11.55;8.20;;;;;;;3.40;79.47;100275.94;1690153;83;21450;-56
2021/10/19 02:41:58;;;;;;;9.75;7.42;;;;;;;3.41;79.39;100280.70;1663913;85;21029;-56
2021/10/19 02:44:24;;;;;;;13.68;8.75;;;;;;;3.48;79.39;100289.80;1700560;82;21790;-56
2021/10/19 02:46:51;;;;;;;13.95;8.10;;;;;;;3.47;79.27;100282.00;1707561;83;21407;-56
2021/10/19 02:49:18;;;;;;;13.78;8.88;;;;;;;3.35;79.31;100289.83;1694294;83;21578;-57
2021/10/19 02:51:44;;;;;;;12.58;8.38;;;;;;;3.26;79.42;100295.48;1702960;83;21053;-54
2021/10/19 02:54:11;;;;;;;11.78;7.87;;;;;;;3.21;79.57;100301.13;1701477;82;21537;-57
2021/10/19 02:56:38;;;;;;;9.43;7.05;;;;;;;3.22;80.31;100302.87;1699513;83;21605;-56
2021/10/19 02:59:05;;;;;;;12.90;8.23;;;;;;;3.28;80.28;100299.39;1699147;83;21621;-54
2021/10/19 03:01:33;;;;;;;9.47;7.90;;;;;;;3.19;80.95;100302.01;1698115;83;21499;-56
2021/10/19 03:03:59;;;;;;;13.22;8.33;;;;;;;3.19;80.95;100302.01;1699569;83;21800;-55
2021/10/19 03:06:26;;;;;;;13.20;7.72;;;;;;;3.12;80.84;100304.59;1698222;83;21516;-56
2021/10/19 03:08:54;;;;;;;11.35;7.45;;;;;;;3.12;80.92;100302.44;1698736;83;21690;-56
2021/10/19 03:11:21;;;;;;;11.70;7.67;;;;;;;3.19;81.00;100302.86;1694624;82;21534;-56
2021/10/19 03:13:49;;;;;;;9.93;6.80;;;;;;;3.18;80.58;100304.16;1672933;84;21535;-55
2021/10/19 03:16:16;;;;;;;9.70;7.40;;;;;;;3.10;80.66;100303.73;1703512;81;21166;-56
2021/10/19 03:18:43;;;;;;;11.33;8.23;;;;;;;3.07;80.58;100306.77;1703417;82;21584;-54
2021/10/19 03:21:11;;;;;;;8.78;6.53;;;;;;;2.97;80.98;100306.36;1667211;84;21802;-56
2021/10/19 03:23:37;;;;;;;9.08;7.03;;;;;;;2.98;81.16;100299.88;1671743;84;21076;-56
2021/10/19 03:26:04;;;;;;;11.88;6.85;;;;;;;3.05;81.29;100307.20;1669066;84;21518;-55
2021/10/19 03:28:31;;;;;;;8.75;7.28;;;;;;;3.09;80.83;100308.52;1656951;85;21024;-56
2021/10/19 03:30:57;;;;;;;8.98;6.00;;;;;;;3.01;80.87;100311.54;1650407;85;21569;-56
2021/10/19 03:33:24;;;;;;;8.33;7.22;;;;;;;2.96;80.85;100309.41;1683547;84;22180;-56
2021/10/19 03:35:51;;;;;;;8.68;5.67;;;;;;;2.90;81.41;100314.58;1677333;84;21513;-56
2021/10/19 03:38:18;;;;;;;7.50;6.08;;;;;;;2.87;81.68;100310.27;1650786;84;21623;-57
2021/10/19 03:40:44;;;;;;;13.47;6.50;;;;;;;2.87;81.68;100305.52;1666462;84;21443;-56
2021/10/19 03:43:11;;;;;;;8.55;6.20;;;;;;;2.95;81.50;100319.34;1673687;84;21766;-56
2021/10/19 03:45:38;;;;;;;11.50;6.60;;;;;;;2.92;81.29;100320.23;1640738;85;22233;-56
2021/10/19 03:48:05;;;;;;;7.35;6.30;;;;;;;2.82;81.52;100321.52;1654178;86;21585;-56
2021/10/19 03:50:31;;;;;;;7.92;6.10;;;;;;;2.70;82.29;100335.38;1675118;83;21510;-56
2021/10/19 03:52:58;;;;;;;10.50;7.10;;;;;;;2.72;82.05;100327.16;1659864;86;21443;-56
2021/10/19 03:55:25;;;;;;;6.62;5.45;;;;;;;2.77;81.98;100329.73;1677766;84;21000;-57
2021/10/19 03:57:52;;;;;;;7.62;6.10;;;;;;;2.76;81.57;100329.33;1680309;83;21789;-57
2021/10/19 04:00:19;;;;;;;8.80;6.28;;;;;;;2.65;81.94;100334.06;1674722;83;21715;-57
2021/10/19 04:02:45;;;;;;;8.35;6.22;;;;;;;2.59;81.91;100334.52;1677333;83;21603;-56
2021/10/19 04:05:12;;;;;;;6.78;5.58;;;;;;;2.61;81.79;100341.87;1675302;84;21434;-57
2021/10/19 04:07:39;;;;;;;11.70;6.47;;;;;;;2.70;81.35;100341.44;1675309;84;21580;-57
2021/10/19 04:10:07;;;;;;;10.55;6.90;;;;;;;2.70;81.18;100340.14;1672410;84;21815;-57
2021/10/19 04:12:33;;;;;;;8.68;6.35;;;;;;;2.65;81.07;100344.45;1671846;84;21430;-56
2021/10/19 04:15:00;;;;;;;7.05;5.85;;;;;;;2.62;80.99;100344.88;1676407;84;20961;-55
2021/10/19 04:17:27;;;;;;;8.23;5.58;;;;;;;2.56;81.09;100351.38;1677169;84;21462;-57
2021/10/19 04:19:53;;;;;;;11.70;6.83;;;;;;;2.57;80.83;100353.12;1672714;84;21534;-55
2021/10/19 04:22:22;;;;;;;10.08;7.40;;;;;;;2.64;80.56;100357.02;1655644;84;21816;-56
2021/10/19 04:24:52;;;;;;;10.60;7.62;;;;;;;2.61;80.50;100359.60;1658652;85;21496;-55
2021/10/19 04:27:19;;;;;;;10.72;8.30;;;;;;;2.56;80.41;100365.66;1656394;85;21549;-56
2021/10/19 04:29:45;;;;;;;9.55;7.83;;;;;;;2.50;80.42;100373.00;1659361;85;21537;-56
2021/10/19 04:32:12;;;;;;;12.05;8.20;;;;;;;2.44;81.04;100374.30;1661782;85;20995;-56
2021/10/19 04:34:39;;;;;;;10.40;7.42;;;;;;;2.55;80.72;100375.18;1660893;84;22012;-56
2021/10/19 04:37:05;;;;;;;9.73;8.20;;;;;;;2.51;80.59;100382.53;1658146;85;21544;-56
2021/10/19 04:39:35;;;;;;;11.60;8.88;;;;;;;2.45;80.63;100378.20;1658406;85;21499;-57
2021/10/19 04:42:02;;;;;;;12.33;8.40;;;;;;;2.36;81.05;100380.77;1659885;84;21123;-56
2021/10/19 04:44:28;;;;;;;11.18;8.05;;;;;;;2.32;81.24;100382.48;1660753;84;21427;-56
2021/10/19 04:46:56;;;;;;;11.68;7.30;;;;;;;2.36;81.10;100385.95;1662328;85;21511;-56
2021/10/19 04:49:23;;;;;;;14.65;7.87;;;;;;;2.47;80.81;100378.20;1660166;84;21087;-56
2021/10/19 04:51:50;;;;;;;9.63;8.27;;;;;;;2.45;80.67;100382.09;1664398;83;21021;-57
2021/10/19 04:54:17;;;;;;;13.25;8.63;;;;;;;2.38;80.74;100385.97;1646801;84;21566;-56
2021/10/19 04:56:43;;;;;;;9.95;8.20;;;;;;;2.31;81.10;100388.52;1665161;85;21613;-57
2021/10/19 04:59:11;;;;;;;12.00;7.35;;;;;;;2.34;81.06;100391.14;1637545;85;21780;-56
2021/10/19 05:01:38;;;;;;;11.68;6.97;;;;;;;2.48;80.84;100380.77;1659667;84;21601;-57
2021/10/19 05:04:04;;;;;;;7.85;7.03;;;;;;;2.48;80.81;100391.16;1665632;84;21668;-56
2021/10/19 05:06:31;;;;;;;9.23;7.40;;;;;;;2.45;80.76;100400.67;1660546;84;21470;-55
2021/10/19 05:08:58;;;;;;;10.80;6.30;;;;;;;2.42;80.92;100399.37;1665200;85;21520;-55
2021/10/19 05:11:27;;;;;;;8.90;5.95;;;;;;;2.39;80.99;100405.85;1665451;84;21476;-55
2021/10/19 05:13:55;;;;;;;8.10;6.90;;;;;;;2.48;80.90;100401.98;1664733;85;21564;-56
2021/10/19 05:16:22;;;;;;;12.65;7.55;;;;;;;2.58;80.62;100408.95;1664409;84;21565;-56
2021/10/19 05:18:49;;;;;;;11.03;7.37;;;;;;;2.51;80.66;100408.49;1673430;84;21535;-56
2021/10/19 05:21:16;;;;;;;9.85;7.58;;;;;;;2.49;80.71;100414.12;1664363;85;21097;-55
2021/10/19 05:23:44;;;;;;;8.93;6.15;;;;;;;2.47;80.92;100417.14;1673514;85;21792;-55
2021/10/19 05:26:11;;;;;;;10.35;6.95;;;;;;;2.53;80.80;100414.55;1654402;86;21563;-59
2021/10/19 05:28:38;;;;;;;9.83;6.50;;;;;;;2.68;80.46;100419.77;1646930;86;21588;-56
2021/10/19 05:31:05;;;;;;;8.53;6.08;;;;;;;2.75;80.18;100425.86;1655033;86;21642;-56
2021/10/19 05:33:33;;;;;;;7.67;5.92;;;;;;;2.73;80.18;100426.25;1660272;85;21530;-57
2021/10/19 05:36:01;;;;;;;7.95;5.97;;;;;;;2.76;80.03;100425.41;1653285;85;21755;-56
2021/10/19 05:38:31;;;;;;;8.55;5.65;;;;;;;2.78;79.91;100430.17;1624699;86;21502;-56
2021/10/19 05:40:57;;;;;;;8.08;5.22;;;;;;;2.85;79.91;100431.48;1672374;83;21018;-60
2021/10/19 05:43:23;;;;;;;7.85;5.87;;;;;;;2.98;79.50;100436.27;1675583;84;21815;-56
2021/10/19 05:45:50;;;;;;;7.65;6.17;;;;;;;2.93;79.28;100441.88;1675511;85;21018;-57
2021/10/19 05:48:17;;;;;;;7.83;6.10;;;;;;;2.96;79.36;100449.69;1679445;85;21870;-57
2021/10/19 05:50:45;;;;;;;6.42;5.22;;;;;;;2.91;79.34;100447.51;1654873;84;21442;-56
2021/10/19 05:53:12;;;;;;;10.03;5.92;;;;;;;2.96;79.35;100444.49;1675726;85;20974;-56
2021/10/19 05:55:39;;;;;;;9.58;6.47;;;;;;;3.05;79.21;100448.41;1677504;85;21497;-57
2021/10/19 05:58:06;;;;;;;9.48;6.05;;;;;;;3.18;78.77;100444.49;1669287;85;21593;-59
2021/10/19 06:00:33;;;;;;;10.93;7.55;;;;;;;3.22;78.63;100453.61;1668250;85;21576;-56
2021/10/19 06:03:00;;;;;;;9.90;6.53;;;;;;;3.19;78.49;100453.59;1653562;85;21506;-57
2021/10/19 06:05:26;;;;;;;6.08;5.45;;;;;;;3.21;78.97;100452.30;1670079;84;21559;-56
2021/10/19 06:07:55;;;;;;;8.20;5.62;;;;;;;3.27;78.52;100450.99;1676037;85;21651;-55
2021/10/19 06:10:24;;;;;;;5.58;4.95;;;;;;;3.44;78.25;100452.28;1654639;84;21012;-56
2021/10/19 06:12:51;;;;;;;;;;;;;;;3.55;77.82;100454.44;1678730;84;21772;-56
2021/10/19 06:15:20;;;;;;;9.00;5.53;;;;;;;3.54;77.15;100454.00;1645380;86;20436;-56
2021/10/19 06:17:48;;;;;;;7.87;5.20;;;;;;;3.56;77.24;100457.49;1670030;84;21604;-56
2021/10/19 06:20:15;;;;;;;7.03;5.17;;;;;;;3.58;77.04;100456.16;1660870;84;21580;-56
2021/10/19 06:22:42;;;;;;;6.70;4.95;;;;;;;3.64;76.86;100453.58;1654866;86;21438;-56
2021/10/19 06:25:09;;;;;;;6.60;4.92;;;;;;;3.80;76.89;100459.60;1673922;84;21796;-56
2021/10/19 06:27:36;;;;;;;6.42;5.08;;;;;;;3.97;76.40;100462.16;1675568;84;21528;-56
2021/10/19 06:30:04;;;;;;;8.20;5.45;;;;;;;4.00;75.69;100466.07;1673970;84;21069;-55
2021/10/19 06:32:32;;;;;;;9.38;5.87;;;;;;;4.04;75.62;100466.48;1680947;84;21022;-55
2021/10/19 06:34:59;;;;;;;8.48;5.80;;;;;;;4.08;75.27;100463.00;1675793;84;21550;-55
2021/10/19 06:37:26;;;;;;;7.95;6.05;;;;;;;4.13;75.13;100465.16;1665605;84;21781;-57
2021/10/19 06:39:53;;;;;;;6.58;5.17;;;;;;;4.22;74.99;100465.55;1662585;84;21745;-56
2021/10/19 06:42:20;;;;;;;7.53;5.10;;;;;;;4.33;74.39;100461.16;1677043;84;21009;-57
2021/10/19 06:44:47;;;;;;;10.68;5.25;;;;;;;4.58;73.92;100464.98;1682545;84;21505;-57
2021/10/19 06:47:14;;;;;;;9.65;5.30;;;;;;;4.69;73.85;100468.39;1680291;84;21069;-57
2021/10/19 06:49:41;;;;;;;8.98;5.67;;;;;;;4.73;72.99;100464.89;1656614;84;21734;-56
2021/10/19 06:52:07;;;;;;;8.00;5.40;;;;;;;4.77;72.33;100473.11;1655281;86;21455;-55
2021/10/19 06:54:34;;;;;;;7.25;5.95;;;;;;;4.78;71.05;100467.45;1627591;86;21494;-56
2021/10/19 06:57:01;;;;;;;5.97;4.97;;;;;;;4.81;71.50;100470.06;1680907;83;21634;-57
2021/10/19 06:59:28;;;;;;;7.22;5.03;;;;;;;4.87;71.28;100469.56;1674982;84;21687;-54
2021/10/19 07:01:57;;;;;;;6.28;5.00;;;;;;;4.98;70.90;100468.64;1679026;83;21581;-57
2021/10/19 07:04:24;;;;;;;6.75;5.17;;;;;;;5.16;70.91;100463.72;1649446;85;21565;-57
2021/10/19 07:06:51;;;;;;;5.65;4.50;;;;;;;5.27;69.83;100463.20;1681549;84;21497;-58
2021/10/19 07:09:20;;;;;;;6.15;5.37;;;;;;;5.35;69.24;100465.33;1678844;84;21537;-58
2021/10/19 07:11:47;;;;;;;10.57;5.93;;;;;;;5.36;68.47;100467.05;1683325;83;21530;-57
2021/10/19 07:14:14;;;;;;;10.53;5.72;;;;;;;5.43;69.27;100473.94;1632948;86;21798;-56
2021/10/19 07:16:41;;;;;;;10.38;6.25;;;;;;;5.50;69.25;100471.27;1674872;84;21520;-56
2021/10/19 07:19:09;;;;;;;8.53;5.83;;;;;;;5.58;68.95;100478.16;1663865;84;21541;-58
2021/10/19 07:21:37;;;;;;;10.00;5.22;;;;;;;5.64;68.48;100477.24;1658887;85;20993;-57
2021/10/19 07:24:05;;;;;;;7.28;5.05;;;;;;;5.71;68.27;100471.51;1663344;84;21422;-57
2021/10/19 07:26:32;;;;;;;;;;;;;;;5.80;67.40;100475.34;1665370;85;21600;-57
2021/10/19 07:29:01;;;;;;;7.45;4.45;;;;;;;5.94;67.08;100472.16;1659534;85;20425;-57
2021/10/19 07:31:29;;;;;;;8.05;4.45;;;;;;;6.18;66.61;100476.73;1671462;85;21090;-58
2021/10/19 07:33:56;;;;;;;10.00;4.72;;;;;;;6.33;66.10;100479.58;1678299;84;21057;-57
2021/10/19 07:36:26;;;;;;;7.03;4.80;;;;;;;6.42;65.19;100475.13;1653075;86;21573;-58
2021/10/19 07:38:53;;;;;;;5.60;4.53;;;;;;;6.46;65.42;100472.04;1649643;86;22042;-58
2021/10/19 07:41:21;;;;;;;8.85;5.03;;;;;;;6.55;65.50;100468.42;1651457;86;21569;-58
2021/10/19 07:43:49;;;;;;;6.50;4.83;;;;;;;6.63;65.28;100471.37;1647934;85;21066;-56
2021/10/19 07:46:15;;;;;;;6.10;4.60;;;;;;;6.70;65.23;100468.66;1679746;84;21549;-57
2021/10/19 07:48:42;;;;;;;4.67;3.90;;;;;;;6.74;63.83;100472.95;1660972;84;21545;-57
2021/10/19 07:51:10;;;;;;;;;;;;;;;6.79;63.54;100466.78;1644182;86;22129;-57
2021/10/19 07:53:37;;;;;;;4.30;3.87;;;;;;;6.87;63.03;100463.20;1675708;85;20432;-57
2021/10/19 07:56:04;;;;;;;5.65;3.55;;;;;;;6.93;63.05;100467.02;1674675;84;21529;-57
2021/10/19 07:58:32;;;;;;;4.65;3.50;;;;;;;6.99;63.29;100466.50;1679597;85;21594;-56
2021/10/19 08:00:59;;;;;;;5.08;3.27;;;;;;;7.10;62.40;100468.08;1653506;86;21513;-56
2021/10/19 08:03:29;;;;;;;5.08;2.90;;;;;;;7.20;61.78;100461.83;1651280;86;21874;-57
2021/10/19 08:05:56;;;;;;;3.50;2.75;;;;;;;7.31;60.82;100465.56;1674747;85;21553;-58
2021/10/19 08:08:23;;;;;;;6.28;3.00;;;;;;;7.38;58.88;100466.77;1650523;86;21060;-57
2021/10/19 08:10:50;;;;;;;3.72;3.33;;;;;;;7.46;59.70;100473.18;1676492;83;21519;-56
2021/10/19 08:13:19;;;;;;;5.90;3.52;;;;;;;7.56;59.64;100469.96;1664554;85;21583;-60
2021/10/19 08:15:46;;;;;;;4.17;3.12;;;;;;;7.63;58.73;100479.44;1676503;84;21833;-57
2021/10/19 08:18:15;;;;;;;4.22;3.12;;;;;;;7.73;58.67;100480.13;1679594;83;21621;-57
2021/10/19 08:20:42;;;;;;;4.37;3.02;;;;;;;7.72;57.10;100479.70;1652824;84;21009;-56
2021/10/19 14:12:40;;;;;;;2.62;2.02;;;;;;;15.14;27.08;100448.28;1768204;78;23119;-57
2021/10/19 14:15:07;;;;;;;3.85;2.85;;;;;;;14.43;27.60;100456.46;1740147;80;21604;-57
2021/10/19 14:17:36;;;;;;;8.35;4.53;;;;;;;13.65;28.82;100455.50;1740209;80;21819;-57
2021/10/19 14:20:06;;;;;;;4.15;2.80;;;;;;;13.01;29.19;100463.80;1747084;79;21448;-56
2021/10/19 14:22:34;;;;;;;3.00;2.70;;;;;;;12.30;30.17;100480.14;1699075;83;21478;-57
2021/10/19 14:25:01;;;;;;;5.17;2.20;;;;;;;11.86;30.79;100472.41;1695766;83;21511;-58
2021/10/19 14:27:28;;;;;;;5.45;2.65;;;;;;;11.16;32.10;100479.59;1680644;83;21501;-57
2021/10/19 14:29:56;;;;;;;4.65;4.03;;;;;;;11.16;32.10;100479.59;1679821;84;21877;-58
2021/10/19 14:32:24;;;;;;;6.70;4.08;;;;;;;10.89;32.87;100486.12;1686785;83;21530;-57
2021/10/19 14:34:51;;;;;;;6.17;4.90;;;;;;;10.62;33.25;100486.95;1706597;82;21079;-58
2021/10/19 14:37:18;;;;;;;7.53;4.37;;;;;;;10.33;33.69;100488.20;1708953;82;21509;-59
2021/10/19 14:39:45;;;;;;;5.17;3.72;;;;;;;9.82;34.13;100422.17;1691859;83;21530;-59
2021/10/19 14:42:12;;;;;;;3.95;3.52;;;;;;;10.00;34.18;100487.36;1698446;83;21884;-60
2021/10/19 14:44:40;;;;;;;3.75;3.45;;;;;;;9.86;34.14;100485.53;1698554;83;21065;-57
2021/10/19 14:47:07;;;;;;;7.53;4.60;;;;;;;9.63;35.20;100486.14;1676220;83;21517;-57
2021/10/19 14:49:35;;;;;;;11.10;4.60;;;;;;;9.50;34.67;100490.83;1682851;83;21659;-58
2021/10/19 14:52:02;;;;;;;8.30;5.58;;;;;;;9.34;35.00;100489.91;1692826;82;21463;-58
2021/10/19 14:54:30;;;;;;;6.70;5.90;;;;;;;9.14;35.41;100486.43;1700803;82;21873;-58
2021/10/19 14:56:58;;;;;;;8.90;6.50;;;;;;;8.96;36.10;100496.03;1703691;82;21005;-58
2021/10/19 14:59:25;;;;;;;11.93;8.95;;;;;;;8.76;36.75;100500.42;1692450;83;21697;-57
2021/10/19 15:01:51;;;;;;;15.60;10.55;;;;;;;8.60;36.55;100500.32;1679968;83;21540;-57
2021/10/19 15:04:18;;;;;;;13.88;10.53;;;;;;;8.44;37.14;100498.02;1694055;83;21506;-57
2021/10/19 15:06:45;;;;;;;15.60;10.32;;;;;;;8.32;37.61;100500.39;1700802;82;21866;-58
2021/10/19 15:09:13;;;;;;;12.80;10.00;;;;;;;8.14;38.05;100496.84;1680905;83;21543;-56
2021/10/19 15:11:40;;;;;;;9.75;7.22;;;;;;;8.03;38.47;100498.80;1680039;83;21540;-56
2021/10/19 15:14:07;;;;;;;11.57;7.87;;;;;;;7.95;37.88;100505.50;1676992;84;21551;-58
2021/10/19 15:16:36;;;;;;;7.80;6.45;;;;;;;7.77;38.37;100501.44;1733696;80;21524;-56
2021/10/19 15:19:06;;;;;;;8.30;5.25;;;;;;;7.69;38.91;100505.50;1717873;80;21813;-57
2021/10/19 15:21:36;;;;;;;8.70;5.20;;;;;;;7.58;39.04;100510.91;1726247;81;21050;-59
2021/10/19 15:24:04;;;;;;;9.33;4.60;;;;;;;7.44;39.27;100510.70;1724175;80;21526;-60
2021/10/19 15:26:31;;;;;;;10.03;4.40;;;;;;;7.33;39.49;100513.06;1726512;81;21524;-60
2021/10/19 15:28:57;;;;;;;6.90;4.67;;;;;;;7.25;39.83;100514.06;1729641;80;21491;-60
2021/10/19 15:31:25;;;;;;;5.07;4.07;;;;;;;7.16;39.78;100517.25;1722773;81;21791;-60
2021/10/19 15:33:53;;;;;;;5.78;4.67;;;;;;;7.05;40.06;100523.08;1718776;82;21413;-60
2021/10/19 15:36:20;;;;;;;;;;;;;;;6.95;40.76;100527.58;1723256;82;21453;-60
2021/10/19 15:38:47;;;;;;;6.60;4.73;;;;;;;6.82;41.48;100530.80;1727130;80;20410;-59
2021/10/19 15:41:14;;;;;;;8.53;5.65;;;;;;;6.70;41.42;100529.63;1732829;80;21795;-58
2021/10/19 15:43:41;;;;;;;11.10;6.42;;;;;;;6.59;41.66;100532.82;1727837;80;21498;-59
2021/10/19 15:46:08;;;;;;;12.53;6.53;;;;;;;6.47;41.93;100530.37;1726489;81;21544;-59
2021/10/19 15:48:36;;;;;;;10.63;6.58;;;;;;;6.37;42.33;100529.17;1724883;81;20990;-59
2021/10/19 15:51:04;;;;;;;10.23;6.05;;;;;;;6.30;42.63;100531.87;1703585;82;21492;-59
2021/10/19 15:53:33;;;;;;;10.03;6.10;;;;;;;6.24;42.78;100539.33;1725083;82;21436;-60
2021/10/19 15:56:02;;;;;;;9.63;6.50;;;;;;;6.16;43.25;100543.75;1720800;81;21799;-61
2021/10/19 15:58:30;;;;;;;13.25;6.62;;;;;;;6.09;43.25;100549.49;1708911;80;21049;-59
2021/10/19 16:00:58;;;;;;;8.40;6.30;;;;;;;5.98;43.83;100552.64;1717533;82;21503;-59
2021/10/19 16:03:25;;;;;;;9.75;6.33;;;;;;;5.90;43.92;100547.47;1715851;80;21011;-60
2021/10/19 16:05:54;;;;;;;9.28;6.17;;;;;;;5.81;44.04;100552.31;1717589;81;21628;-61
2021/10/19 16:08:21;;;;;;;13.10;6.83;;;;;;;5.75;44.95;100551.52;1728609;80;21593;-61
2021/10/19 16:10:49;;;;;;;10.40;6.42;;;;;;;5.62;44.78;100550.75;1725651;81;21563;-59
2021/10/19 16:13:16;;;;;;;;;;;;;;;5.57;44.53;100553.83;1718643;82;21526;-59
2021/10/19 16:15:45;;;;;;;14.47;6.17;;;;;;;5.50;45.95;100551.72;1723938;81;20423;-60
2021/10/19 16:18:14;;;;;;;10.35;6.50;;;;;;;5.39;45.09;100557.00;1716374;80;21460;-60
2021/10/19 16:20:41;;;;;;;11.00;6.42;;;;;;;5.32;45.19;100561.83;1720815;81;21804;-61
2021/10/19 16:23:08;;;;;;;10.93;7.27;;;;;;;5.28;45.62;100564.48;1733525;80;21483;-61
2021/10/19 16:25:37;;;;;;;9.33;6.45;;;;;;;5.21;45.97;100556.67;1721686;81;21565;-62
2021/10/19 16:28:04;;;;;;;;;;;;;;;5.13;46.20;100559.78;1712085;80;21416;-60
2021/10/19 16:30:39;;;;;;;13.30;7.03;;;;;;;5.05;46.70;100552.45;1730062;81;20458;-59
2021/10/19 16:33:07;;;;;;;17.42;7.90;;;;;;;4.98;46.50;100555.52;1724379;80;22147;-59
2021/10/19 16:35:36;;;;;;;15.00;7.60;;;;;;;4.90;46.77;100553.81;1740503;80;21436;-59
2021/10/19 16:38:03;;;;;;;14.13;7.78;;;;;;;4.85;47.08;100558.61;1726657;81;21566;-61
2021/10/19 16:40:31;;;;;;;12.63;7.33;;;;;;;4.78;47.53;100558.65;1714828;82;21492;-60
2021/10/19 16:42:59;;;;;;;18.55;8.78;;;;;;;4.69;47.58;100551.77;1721586;81;21633;-60
2021/10/19 16:45:33;;;;;;;14.00;8.58;;;;;;;4.62;47.30;100554.81;1715199;80;21787;-60
2021/10/19 16:48:00;;;;;;;14.78;7.75;;;;;;;4.57;47.49;100563.07;1723931;81;21641;-61
2021/10/19 16:50:28;;;;;;;12.45;6.97;;;;;;;4.53;47.50;100561.36;1708923;82;21511;-59
2021/10/19 16:52:55;;;;;;;14.00;8.18;;;;;;;4.45;47.82;100560.52;1717882;81;21609;-60
2021/10/19 16:55:23;;;;;;;14.28;6.83;;;;;;;4.42;47.95;100569.19;1720804;81;21543;-62
2021/10/19 16:57:51;;;;;;;;;;;;;;;4.36;48.10;100564.45;1722753;80;21726;-60
2021/10/19 17:00:18;;;;;;;14.87;7.78;;;;;;;4.31;49.00;100560.98;1716489;81;20184;-61
2021/10/19 17:02:46;;;;;;;13.48;7.50;;;;;;;4.25;48.24;100561.42;1725489;80;21563;-60
2021/10/19 17:05:13;;;;;;;13.57;8.57;;;;;;;4.26;48.75;100567.08;1728634;81;21444;-60
2021/10/19 17:07:41;;;;;;;13.90;7.62;;;;;;;4.27;48.66;100564.89;1719613;81;25990;-62
2021/10/19 17:10:09;;;;;;;16.05;8.55;;;;;;;4.25;49.14;100572.28;1718833;81;22329;-61
2021/10/19 17:12:36;;;;;;;16.75;8.63;;;;;;;4.19;49.15;100577.06;1719493;81;21620;-61
2021/10/19 17:15:06;;;;;;;14.90;9.40;;;;;;;4.13;49.54;100574.48;1722446;81;21460;-61
2021/10/19 17:17:34;;;;;;;14.33;8.30;;;;;;;4.07;49.45;100573.20;1721373;80;21483;-61
2021/10/19 17:20:02;;;;;;;16.32;9.60;;;;;;;4.03;49.56;100579.25;1721975;81;26847;-60
2021/10/19 17:22:29;;;;;;;15.43;9.53;;;;;;;3.96;49.65;100578.84;1720925;81;22011;-60
2021/10/19 17:24:58;;;;;;;18.80;10.23;;;;;;;3.91;50.17;100581.44;1726648;81;21538;-61